sensor_id;sensor_type;location;lat;lon;timestamp;P1;durP1;ratioP1;P2;durP2;ratioP2
15500;SDS011;7852;52.228;5.990;2023-02-26T00:03:12;9.5;;;2.3;;
15500;SDS011;7852;52.228;5.990;2023-02-26T00:03:12;5.4;;;1.8;;
15500;SDS011;7852;52.228;5.990;2023-02-26T00:03:29;3.2;;;2;;
15500;SDS011;7852;52.228;5.990;2023-02-26T00:04:29;1.9;;;1.2;;
15500;SDS011;7852;52.228;5.990;2023-02-26T00:05:29;3.2;;;1.4;;
15500;SDS011;7852;52.228;5.990;2023-02-26T00:06:30;3;;;1.5;;
15500;SDS011;7852;52.228;5.990;2023-02-26T00:07:29;6;;;1.4;;
15500;SDS011;7852;52.228;5.990;2023-02-26T00:08:29;6.3;;;1.3;;
15500;SDS011;7852;52.228;5.990;2023-02-26T00:09:29;2.4;;;1.1;;
15500;SDS011;7852;52.228;5.990;2023-02-26T00:10:29;1.5;;;1.4;;
15500;SDS011;7852;52.228;5.990;2023-02-26T00:11:29;1.7;;;1.1;;
15500;SDS011;7852;52.228;5.990;2023-02-26T00:12:30;6.6;;;0.9;;
15500;SDS011;7852;52.228;5.990;2023-02-26T00:13:29;1.6;;;1.3;;
15500;SDS011;7852;52.228;5.990;2023-02-26T00:14:29;2.8;;;1.3;;
15500;SDS011;7852;52.228;5.990;2023-02-26T00:15:29;1.4;;;1.2;;
15500;SDS011;7852;52.228;5.990;2023-02-26T00:16:30;2.7;;;1.3;;
15500;SDS011;7852;52.228;5.990;2023-02-26T00:17:32;1.2;;;1;;
15500;SDS011;7852;52.228;5.990;2023-02-26T00:18:29;0.7;;;0.7;;
15500;SDS011;7852;52.228;5.990;2023-02-26T00:19:29;1.5;;;1;;
15500;SDS011;7852;52.228;5.990;2023-02-26T00:20:29;2.9;;;1.6;;
15500;SDS011;7852;52.228;5.990;2023-02-26T00:21:29;2.3;;;1.3;;
15500;SDS011;7852;52.228;5.990;2023-02-26T00:22:29;2.1;;;1.6;;
15500;SDS011;7852;52.228;5.990;2023-02-26T00:23:29;1.6;;;0.8;;
15500;SDS011;7852;52.228;5.990;2023-02-26T00:24:29;1.7;;;1.2;;
15500;SDS011;7852;52.228;5.990;2023-02-26T00:25:29;2.4;;;1.4;;
15500;SDS011;7852;52.228;5.990;2023-02-26T00:26:29;2.4;;;1.3;;
15500;SDS011;7852;52.228;5.990;2023-02-26T00:27:29;2.5;;;1;;
15500;SDS011;7852;52.228;5.990;2023-02-26T00:28:29;1.2;;;1.1;;
15500;SDS011;7852;52.228;5.990;2023-02-26T00:29:29;1.2;;;1.1;;
15500;SDS011;7852;52.228;5.990;2023-02-26T00:30:29;4.2;;;1.6;;
15500;SDS011;7852;52.228;5.990;2023-02-26T00:31:29;3.8;;;1.1;;
15500;SDS011;7852;52.228;5.990;2023-02-26T00:32:29;1.3;;;1;;
15500;SDS011;7852;52.228;5.990;2023-02-26T00:33:29;1.4;;;1;;
15500;SDS011;7852;52.228;5.990;2023-02-26T00:34:29;2.1;;;1.4;;
15500;SDS011;7852;52.228;5.990;2023-02-26T00:35:29;1.9;;;1.3;;
15500;SDS011;7852;52.228;5.990;2023-02-26T00:36:33;2.7;;;1.5;;
15500;SDS011;7852;52.228;5.990;2023-02-26T00:37:32;3.7;;;1.5;;
15500;SDS011;7852;52.228;5.990;2023-02-26T00:38:29;0.7;;;0.7;;
15500;SDS011;7852;52.228;5.990;2023-02-26T00:39:32;2.9;;;1.5;;
15500;SDS011;7852;52.228;5.990;2023-02-26T00:40:34;2.9;;;1.1;;
15500;SDS011;7852;52.228;5.990;2023-02-26T00:41:29;1.5;;;1.3;;
15500;SDS011;7852;52.228;5.990;2023-02-26T00:42:29;3.6;;;1.5;;
15500;SDS011;7852;52.228;5.990;2023-02-26T00:43:29;1.8;;;1.1;;
15500;SDS011;7852;52.228;5.990;2023-02-26T00:44:29;4.5;;;1.6;;
15500;SDS011;7852;52.228;5.990;2023-02-26T00:45:29;1.2;;;0.8;;
15500;SDS011;7852;52.228;5.990;2023-02-26T00:46:33;1.1;;;0.9;;
15500;SDS011;7852;52.228;5.990;2023-02-26T00:47:30;4.2;;;1.2;;
15500;SDS011;7852;52.228;5.990;2023-02-26T00:48:33;1.2;;;1.1;;
15500;SDS011;7852;52.228;5.990;2023-02-26T00:49:32;1.2;;;1.1;;
15500;SDS011;7852;52.228;5.990;2023-02-26T00:50:29;1.8;;;1;;
15500;SDS011;7852;52.228;5.990;2023-02-26T00:51:29;2;;;1;;
15500;SDS011;7852;52.228;5.990;2023-02-26T00:52:31;1.5;;;1.1;;
15500;SDS011;7852;52.228;5.990;2023-02-26T00:53:30;2.8;;;0.8;;
15500;SDS011;7852;52.228;5.990;2023-02-26T00:54:29;2.5;;;0.9;;
15500;SDS011;7852;52.228;5.990;2023-02-26T00:55:29;0.8;;;0.8;;
15500;SDS011;7852;52.228;5.990;2023-02-26T00:56:29;0.8;;;0.8;;
15500;SDS011;7852;52.228;5.990;2023-02-26T00:57:29;1.3;;;1;;
15500;SDS011;7852;52.228;5.990;2023-02-26T00:58:29;0.9;;;0.8;;
15500;SDS011;7852;52.228;5.990;2023-02-26T00:59:29;1.6;;;0.9;;
15500;SDS011;7852;52.228;5.990;2023-02-26T01:00:29;1.3;;;0.9;;
15500;SDS011;7852;52.228;5.990;2023-02-26T01:01:29;1.6;;;0.8;;
15500;SDS011;7852;52.228;5.990;2023-02-26T01:02:29;1.2;;;0.9;;
15500;SDS011;7852;52.228;5.990;2023-02-26T01:03:30;3.5;;;0.8;;
15500;SDS011;7852;52.228;5.990;2023-02-26T01:04:29;1.5;;;0.9;;
15500;SDS011;7852;52.228;5.990;2023-02-26T01:05:29;5.6;;;1.1;;
15500;SDS011;7852;52.228;5.990;2023-02-26T01:06:30;2.7;;;1.3;;
15500;SDS011;7852;52.228;5.990;2023-02-26T01:07:29;4;;;1.1;;
15500;SDS011;7852;52.228;5.990;2023-02-26T01:08:30;0.8;;;0.6;;
15500;SDS011;7852;52.228;5.990;2023-02-26T01:09:30;1.4;;;0.9;;
15500;SDS011;7852;52.228;5.990;2023-02-26T01:10:29;1.3;;;0.8;;
15500;SDS011;7852;52.228;5.990;2023-02-26T01:11:29;0.9;;;0.7;;
15500;SDS011;7852;52.228;5.990;2023-02-26T01:12:29;7.8;;;1.1;;
15500;SDS011;7852;52.228;5.990;2023-02-26T01:13:29;2.8;;;0.9;;
15500;SDS011;7852;52.228;5.990;2023-02-26T01:14:29;2.5;;;0.8;;
15500;SDS011;7852;52.228;5.990;2023-02-26T01:15:29;2.2;;;0.9;;
15500;SDS011;7852;52.228;5.990;2023-02-26T01:16:29;3.3;;;1.1;;
15500;SDS011;7852;52.228;5.990;2023-02-26T01:17:30;2.5;;;0.8;;
15500;SDS011;7852;52.228;5.990;2023-02-26T01:18:30;1;;;0.4;;
15500;SDS011;7852;52.228;5.990;2023-02-26T01:19:30;2.3;;;0.9;;
15500;SDS011;7852;52.228;5.990;2023-02-26T01:20:30;2.1;;;0.8;;
15500;SDS011;7852;52.228;5.990;2023-02-26T01:21:32;6.8;;;0.9;;
15500;SDS011;7852;52.228;5.990;2023-02-26T01:22:30;2.4;;;1.4;;
15500;SDS011;7852;52.228;5.990;2023-02-26T01:23:30;0.9;;;0.6;;
15500;SDS011;7852;52.228;5.990;2023-02-26T01:24:29;2;;;0.7;;
15500;SDS011;7852;52.228;5.990;2023-02-26T01:25:29;1.5;;;0.9;;
15500;SDS011;7852;52.228;5.990;2023-02-26T01:26:29;1.8;;;0.9;;
15500;SDS011;7852;52.228;5.990;2023-02-26T01:27:29;2.5;;;0.9;;
15500;SDS011;7852;52.228;5.990;2023-02-26T01:28:29;1.8;;;0.5;;
15500;SDS011;7852;52.228;5.990;2023-02-26T01:29:29;1.1;;;0.6;;
15500;SDS011;7852;52.228;5.990;2023-02-26T01:30:29;1.8;;;0.7;;
15500;SDS011;7852;52.228;5.990;2023-02-26T01:31:31;1.7;;;0.5;;
15500;SDS011;7852;52.228;5.990;2023-02-26T01:32:30;2.4;;;0.8;;
15500;SDS011;7852;52.228;5.990;2023-02-26T01:33:31;6.4;;;0.9;;
15500;SDS011;7852;52.228;5.990;2023-02-26T01:34:31;0.8;;;0.8;;
15500;SDS011;7852;52.228;5.990;2023-02-26T01:35:31;2.8;;;0.4;;
15500;SDS011;7852;52.228;5.990;2023-02-26T01:36:31;4;;;0.7;;
15500;SDS011;7852;52.228;5.990;2023-02-26T01:37:32;1.2;;;0.9;;
15500;SDS011;7852;52.228;5.990;2023-02-26T01:38:31;2.7;;;0.6;;
15500;SDS011;7852;52.228;5.990;2023-02-26T01:39:31;1.5;;;0.6;;
15500;SDS011;7852;52.228;5.990;2023-02-26T01:40:33;1.7;;;0.4;;
15500;SDS011;7852;52.228;5.990;2023-02-26T01:41:30;1.4;;;0.7;;
15500;SDS011;7852;52.228;5.990;2023-02-26T01:42:30;2.9;;;0.8;;
15500;SDS011;7852;52.228;5.990;2023-02-26T01:43:31;0.6;;;0.5;;
15500;SDS011;7852;52.228;5.990;2023-02-26T01:44:31;1.8;;;0.8;;
15500;SDS011;7852;52.228;5.990;2023-02-26T01:45:30;0.7;;;0.6;;
15500;SDS011;7852;52.228;5.990;2023-02-26T01:46:32;0.6;;;0.5;;
15500;SDS011;7852;52.228;5.990;2023-02-26T01:47:32;0.9;;;0.4;;
15500;SDS011;7852;52.228;5.990;2023-02-26T01:48:33;2.5;;;1;;
15500;SDS011;7852;52.228;5.990;2023-02-26T01:49:30;4.8;;;0.7;;
15500;SDS011;7852;52.228;5.990;2023-02-26T01:50:31;0.7;;;0.5;;
15500;SDS011;7852;52.228;5.990;2023-02-26T01:51:40;2.6;;;0.8;;
15500;SDS011;7852;52.228;5.990;2023-02-26T01:53:30;1.3;;;0.7;;
15500;SDS011;7852;52.228;5.990;2023-02-26T01:53:33;0.6;;;0.5;;
15500;SDS011;7852;52.228;5.990;2023-02-26T01:54:30;3.3;;;0.7;;
15500;SDS011;7852;52.228;5.990;2023-02-26T01:55:30;0.6;;;0.5;;
15500;SDS011;7852;52.228;5.990;2023-02-26T01:56:30;1;;;0.7;;
15500;SDS011;7852;52.228;5.990;2023-02-26T01:57:30;0.8;;;0.7;;
15500;SDS011;7852;52.228;5.990;2023-02-26T01:58:32;1;;;0.9;;
15500;SDS011;7852;52.228;5.990;2023-02-26T01:59:30;1.1;;;0.6;;
15500;SDS011;7852;52.228;5.990;2023-02-26T02:00:30;3.3;;;0.5;;
15500;SDS011;7852;52.228;5.990;2023-02-26T02:01:30;0.5;;;0.5;;
15500;SDS011;7852;52.228;5.990;2023-02-26T02:02:30;0.9;;;0.6;;
15500;SDS011;7852;52.228;5.990;2023-02-26T02:03:30;0.9;;;0.6;;
15500;SDS011;7852;52.228;5.990;2023-02-26T02:04:30;0.9;;;0.6;;
15500;SDS011;7852;52.228;5.990;2023-02-26T02:05:31;1;;;0.6;;
15500;SDS011;7852;52.228;5.990;2023-02-26T02:06:30;1.5;;;0.6;;
15500;SDS011;7852;52.228;5.990;2023-02-26T02:07:30;3.3;;;1.1;;
15500;SDS011;7852;52.228;5.990;2023-02-26T02:08:31;1.2;;;0.8;;
15500;SDS011;7852;52.228;5.990;2023-02-26T02:09:30;3.8;;;0.8;;
15500;SDS011;7852;52.228;5.990;2023-02-26T02:10:30;4.3;;;0.9;;
15500;SDS011;7852;52.228;5.990;2023-02-26T02:11:30;0.6;;;0.5;;
15500;SDS011;7852;52.228;5.990;2023-02-26T02:12:31;0.4;;;0.3;;
15500;SDS011;7852;52.228;5.990;2023-02-26T02:13:34;0.7;;;0.4;;
15500;SDS011;7852;52.228;5.990;2023-02-26T02:14:30;1.2;;;0.7;;
15500;SDS011;7852;52.228;5.990;2023-02-26T02:15:32;2.7;;;0.7;;
15500;SDS011;7852;52.228;5.990;2023-02-26T02:16:31;0.8;;;0.7;;
15500;SDS011;7852;52.228;5.990;2023-02-26T02:17:32;0.6;;;0.5;;
15500;SDS011;7852;52.228;5.990;2023-02-26T02:18:32;2.6;;;0.5;;
15500;SDS011;7852;52.228;5.990;2023-02-26T02:19:36;1.7;;;0.6;;
15500;SDS011;7852;52.228;5.990;2023-02-26T02:20:51;0.5;;;0.5;;
15500;SDS011;7852;52.228;5.990;2023-02-26T02:22:33;1;;;0.5;;
15500;SDS011;7852;52.228;5.990;2023-02-26T02:23:31;0.4;;;0.4;;
15500;SDS011;7852;52.228;5.990;2023-02-26T02:24:33;0.5;;;0.5;;
15500;SDS011;7852;52.228;5.990;2023-02-26T02:25:36;0.6;;;0.5;;
15500;SDS011;7852;52.228;5.990;2023-02-26T02:26:34;1.1;;;0.6;;
15500;SDS011;7852;52.228;5.990;2023-02-26T02:27:33;2.2;;;0.6;;
15500;SDS011;7852;52.228;5.990;2023-02-26T02:28:39;4.6;;;0.7;;
15500;SDS011;7852;52.228;5.990;2023-02-26T02:29:44;10.7;;;1.1;;
15500;SDS011;7852;52.228;5.990;2023-02-26T02:30:37;2.8;;;0.5;;
15500;SDS011;7852;52.228;5.990;2023-02-26T02:31:37;2.9;;;0.7;;
15500;SDS011;7852;52.228;5.990;2023-02-26T02:32:38;0.7;;;0.5;;
15500;SDS011;7852;52.228;5.990;2023-02-26T02:33:40;0.3;;;0.3;;
15500;SDS011;7852;52.228;5.990;2023-02-26T02:34:38;0.9;;;0.5;;
15500;SDS011;7852;52.228;5.990;2023-02-26T02:35:39;3.8;;;0.5;;
15500;SDS011;7852;52.228;5.990;2023-02-26T02:36:40;0.9;;;0.5;;
15500;SDS011;7852;52.228;5.990;2023-02-26T02:37:39;0.3;;;0.3;;
15500;SDS011;7852;52.228;5.990;2023-02-26T02:38:38;0.4;;;0.4;;
15500;SDS011;7852;52.228;5.990;2023-02-26T02:39:39;1.6;;;0.5;;
15500;SDS011;7852;52.228;5.990;2023-02-26T02:40:39;0.4;;;0.4;;
15500;SDS011;7852;52.228;5.990;2023-02-26T02:41:39;0.6;;;0.5;;
15500;SDS011;7852;52.228;5.990;2023-02-26T02:42:41;2.7;;;0.8;;
15500;SDS011;7852;52.228;5.990;2023-02-26T02:43:39;0.7;;;0.5;;
15500;SDS011;7852;52.228;5.990;2023-02-26T02:44:39;0.8;;;0.7;;
15500;SDS011;7852;52.228;5.990;2023-02-26T02:45:40;1;;;0.6;;
15500;SDS011;7852;52.228;5.990;2023-02-26T02:46:39;0.3;;;0.3;;
15500;SDS011;7852;52.228;5.990;2023-02-26T02:47:40;0.9;;;0.7;;
15500;SDS011;7852;52.228;5.990;2023-02-26T02:48:40;0.8;;;0.5;;
15500;SDS011;7852;52.228;5.990;2023-02-26T02:49:41;0.3;;;0.3;;
15500;SDS011;7852;52.228;5.990;2023-02-26T02:50:41;3.4;;;0.8;;
15500;SDS011;7852;52.228;5.990;2023-02-26T02:51:40;0.4;;;0.4;;
15500;SDS011;7852;52.228;5.990;2023-02-26T02:52:40;0.8;;;0.7;;
15500;SDS011;7852;52.228;5.990;2023-02-26T02:53:41;2.1;;;0.7;;
15500;SDS011;7852;52.228;5.990;2023-02-26T02:54:40;2.4;;;0.9;;
15500;SDS011;7852;52.228;5.990;2023-02-26T02:55:41;5.7;;;0.6;;
15500;SDS011;7852;52.228;5.990;2023-02-26T02:56:41;1.1;;;0.6;;
15500;SDS011;7852;52.228;5.990;2023-02-26T02:57:41;0.5;;;0.5;;
15500;SDS011;7852;52.228;5.990;2023-02-26T02:58:41;0.6;;;0.5;;
15500;SDS011;7852;52.228;5.990;2023-02-26T02:59:41;0.2;;;0.2;;
15500;SDS011;7852;52.228;5.990;2023-02-26T03:00:42;0.8;;;0.7;;
15500;SDS011;7852;52.228;5.990;2023-02-26T03:01:40;2.5;;;0.6;;
15500;SDS011;7852;52.228;5.990;2023-02-26T03:02:40;1.8;;;0.8;;
15500;SDS011;7852;52.228;5.990;2023-02-26T03:03:42;0.8;;;0.5;;
15500;SDS011;7852;52.228;5.990;2023-02-26T03:04:40;2.3;;;0.5;;
15500;SDS011;7852;52.228;5.990;2023-02-26T03:05:40;2.6;;;0.6;;
15500;SDS011;7852;52.228;5.990;2023-02-26T03:06:40;3.6;;;0.5;;
15500;SDS011;7852;52.228;5.990;2023-02-26T03:07:42;0.5;;;0.5;;
15500;SDS011;7852;52.228;5.990;2023-02-26T03:08:40;2.1;;;0.7;;
15500;SDS011;7852;52.228;5.990;2023-02-26T03:09:40;0.8;;;0.6;;
15500;SDS011;7852;52.228;5.990;2023-02-26T03:10:40;2.7;;;0.5;;
15500;SDS011;7852;52.228;5.990;2023-02-26T03:11:40;0.6;;;0.6;;
15500;SDS011;7852;52.228;5.990;2023-02-26T03:12:40;0.3;;;0.3;;
15500;SDS011;7852;52.228;5.990;2023-02-26T03:13:40;4.6;;;0.6;;
15500;SDS011;7852;52.228;5.990;2023-02-26T03:14:40;2.1;;;0.4;;
15500;SDS011;7852;52.228;5.990;2023-02-26T03:15:47;1.4;;;0.6;;
15500;SDS011;7852;52.228;5.990;2023-02-26T03:16:44;0.7;;;0.4;;
15500;SDS011;7852;52.228;5.990;2023-02-26T03:17:42;0.7;;;0.5;;
15500;SDS011;7852;52.228;5.990;2023-02-26T03:18:43;3;;;0.7;;
15500;SDS011;7852;52.228;5.990;2023-02-26T03:19:42;0.4;;;0.4;;
15500;SDS011;7852;52.228;5.990;2023-02-26T03:20:41;0.6;;;0.6;;
15500;SDS011;7852;52.228;5.990;2023-02-26T03:21:43;0.7;;;0.3;;
15500;SDS011;7852;52.228;5.990;2023-02-26T03:22:41;2.2;;;0.5;;
15500;SDS011;7852;52.228;5.990;2023-02-26T03:23:42;1.5;;;0.4;;
15500;SDS011;7852;52.228;5.990;2023-02-26T03:24:44;0.3;;;0.3;;
15500;SDS011;7852;52.228;5.990;2023-02-26T03:25:52;0.8;;;0.3;;
15500;SDS011;7852;52.228;5.990;2023-02-26T03:26:41;0.5;;;0.4;;
15500;SDS011;7852;52.228;5.990;2023-02-26T03:27:41;3;;;0.6;;
15500;SDS011;7852;52.228;5.990;2023-02-26T03:28:40;0.3;;;0.3;;
15500;SDS011;7852;52.228;5.990;2023-02-26T03:29:42;5.4;;;1;;
15500;SDS011;7852;52.228;5.990;2023-02-26T03:30:40;2.9;;;1.1;;
15500;SDS011;7852;52.228;5.990;2023-02-26T03:31:43;1.9;;;1;;
15500;SDS011;7852;52.228;5.990;2023-02-26T03:32:42;0.7;;;0.4;;
15500;SDS011;7852;52.228;5.990;2023-02-26T03:33:42;0.9;;;0.5;;
15500;SDS011;7852;52.228;5.990;2023-02-26T03:34:40;1.1;;;0.7;;
15500;SDS011;7852;52.228;5.990;2023-02-26T03:35:43;2.2;;;0.8;;
15500;SDS011;7852;52.228;5.990;2023-02-26T03:36:41;2;;;1;;
15500;SDS011;7852;52.228;5.990;2023-02-26T03:37:40;1.3;;;0.5;;
15500;SDS011;7852;52.228;5.990;2023-02-26T03:38:43;0.8;;;0.4;;
15500;SDS011;7852;52.228;5.990;2023-02-26T03:39:42;4.1;;;0.5;;
15500;SDS011;7852;52.228;5.990;2023-02-26T03:40:41;0.2;;;0.2;;
15500;SDS011;7852;52.228;5.990;2023-02-26T03:41:42;0.4;;;0.4;;
15500;SDS011;7852;52.228;5.990;2023-02-26T03:42:42;0.5;;;0.4;;
15500;SDS011;7852;52.228;5.990;2023-02-26T03:43:44;1.7;;;0.6;;
15500;SDS011;7852;52.228;5.990;2023-02-26T03:44:42;0.6;;;0.5;;
15500;SDS011;7852;52.228;5.990;2023-02-26T03:45:41;0.8;;;0.8;;
15500;SDS011;7852;52.228;5.990;2023-02-26T03:46:41;0.6;;;0.6;;
15500;SDS011;7852;52.228;5.990;2023-02-26T03:47:41;1.5;;;0.8;;
15500;SDS011;7852;52.228;5.990;2023-02-26T03:48:41;2.3;;;0.6;;
15500;SDS011;7852;52.228;5.990;2023-02-26T03:49:41;2.4;;;0.4;;
15500;SDS011;7852;52.228;5.990;2023-02-26T03:50:42;0.8;;;0.6;;
15500;SDS011;7852;52.228;5.990;2023-02-26T03:51:42;0.5;;;0.4;;
15500;SDS011;7852;52.228;5.990;2023-02-26T03:52:42;0.6;;;0.6;;
15500;SDS011;7852;52.228;5.990;2023-02-26T03:53:42;0.5;;;0.5;;
15500;SDS011;7852;52.228;5.990;2023-02-26T03:54:42;1;;;0.5;;
15500;SDS011;7852;52.228;5.990;2023-02-26T03:55:45;5.4;;;0.7;;
15500;SDS011;7852;52.228;5.990;2023-02-26T03:56:41;0.5;;;0.5;;
15500;SDS011;7852;52.228;5.990;2023-02-26T03:57:41;1;;;0.4;;
15500;SDS011;7852;52.228;5.990;2023-02-26T03:58:41;5.8;;;0.9;;
15500;SDS011;7852;52.228;5.990;2023-02-26T04:00:41;1.7;;;0.9;;
15500;SDS011;7852;52.228;5.990;2023-02-26T04:01:42;1.4;;;0.6;;
15500;SDS011;7852;52.228;5.990;2023-02-26T04:02:41;0.4;;;0.4;;
15500;SDS011;7852;52.228;5.990;2023-02-26T04:03:43;0.6;;;0.3;;
15500;SDS011;7852;52.228;5.990;2023-02-26T04:04:42;0.4;;;0.4;;
15500;SDS011;7852;52.228;5.990;2023-02-26T04:05:42;1;;;0.8;;
15500;SDS011;7852;52.228;5.990;2023-02-26T04:06:41;0.3;;;0.3;;
15500;SDS011;7852;52.228;5.990;2023-02-26T04:07:41;0.5;;;0.4;;
15500;SDS011;7852;52.228;5.990;2023-02-26T04:08:41;0.8;;;0.6;;
15500;SDS011;7852;52.228;5.990;2023-02-26T04:09:41;0.5;;;0.5;;
15500;SDS011;7852;52.228;5.990;2023-02-26T04:10:42;0.4;;;0.4;;
15500;SDS011;7852;52.228;5.990;2023-02-26T04:11:41;0.7;;;0.5;;
15500;SDS011;7852;52.228;5.990;2023-02-26T04:12:41;1.9;;;0.7;;
15500;SDS011;7852;52.228;5.990;2023-02-26T04:13:41;1.3;;;0.6;;
15500;SDS011;7852;52.228;5.990;2023-02-26T04:14:41;0.7;;;0.6;;
15500;SDS011;7852;52.228;5.990;2023-02-26T04:15:41;5;;;0.5;;
15500;SDS011;7852;52.228;5.990;2023-02-26T04:16:41;0.5;;;0.4;;
15500;SDS011;7852;52.228;5.990;2023-02-26T04:17:41;1.2;;;0.7;;
15500;SDS011;7852;52.228;5.990;2023-02-26T04:18:41;6.7;;;0.6;;
15500;SDS011;7852;52.228;5.990;2023-02-26T04:19:41;0.4;;;0.4;;
15500;SDS011;7852;52.228;5.990;2023-02-26T04:20:41;0.4;;;0.4;;
15500;SDS011;7852;52.228;5.990;2023-02-26T04:21:41;2.3;;;0.6;;
15500;SDS011;7852;52.228;5.990;2023-02-26T04:22:41;0.3;;;0.3;;
15500;SDS011;7852;52.228;5.990;2023-02-26T04:23:41;0.4;;;0.4;;
15500;SDS011;7852;52.228;5.990;2023-02-26T04:24:41;1.4;;;0.5;;
15500;SDS011;7852;52.228;5.990;2023-02-26T04:25:41;0.3;;;0.3;;
15500;SDS011;7852;52.228;5.990;2023-02-26T04:26:41;0.6;;;0.3;;
15500;SDS011;7852;52.228;5.990;2023-02-26T04:27:41;2.7;;;0.5;;
15500;SDS011;7852;52.228;5.990;2023-02-26T04:28:41;0.4;;;0.4;;
15500;SDS011;7852;52.228;5.990;2023-02-26T04:29:41;1;;;0.5;;
15500;SDS011;7852;52.228;5.990;2023-02-26T04:30:41;1.9;;;0.5;;
15500;SDS011;7852;52.228;5.990;2023-02-26T04:31:41;1.8;;;0.5;;
15500;SDS011;7852;52.228;5.990;2023-02-26T04:32:41;0.4;;;0.4;;
15500;SDS011;7852;52.228;5.990;2023-02-26T04:33:41;0.3;;;0.3;;
15500;SDS011;7852;52.228;5.990;2023-02-26T04:34:41;0.4;;;0.4;;
15500;SDS011;7852;52.228;5.990;2023-02-26T04:35:41;1.1;;;0.6;;
15500;SDS011;7852;52.228;5.990;2023-02-26T04:36:41;0.7;;;0.5;;
15500;SDS011;7852;52.228;5.990;2023-02-26T04:37:41;1.9;;;0.8;;
15500;SDS011;7852;52.228;5.990;2023-02-26T04:38:41;0.3;;;0.3;;
15500;SDS011;7852;52.228;5.990;2023-02-26T04:39:41;0.4;;;0.4;;
15500;SDS011;7852;52.228;5.990;2023-02-26T04:40:41;0.3;;;0.3;;
15500;SDS011;7852;52.228;5.990;2023-02-26T04:41:41;1.4;;;0.7;;
15500;SDS011;7852;52.228;5.990;2023-02-26T04:42:41;3.5;;;0.7;;
15500;SDS011;7852;52.228;5.990;2023-02-26T04:43:41;3.3;;;0.5;;
15500;SDS011;7852;52.228;5.990;2023-02-26T04:44:41;2.1;;;0.6;;
15500;SDS011;7852;52.228;5.990;2023-02-26T04:45:41;1.2;;;0.6;;
15500;SDS011;7852;52.228;5.990;2023-02-26T04:46:41;0.5;;;0.3;;
15500;SDS011;7852;52.228;5.990;2023-02-26T04:47:41;0.4;;;0.3;;
15500;SDS011;7852;52.228;5.990;2023-02-26T04:48:41;0.6;;;0.5;;
15500;SDS011;7852;52.228;5.990;2023-02-26T04:49:41;1;;;0.5;;
15500;SDS011;7852;52.228;5.990;2023-02-26T04:50:41;1.7;;;0.6;;
15500;SDS011;7852;52.228;5.990;2023-02-26T04:51:41;7.7;;;1;;
15500;SDS011;7852;52.228;5.990;2023-02-26T04:52:41;1.7;;;0.7;;
15500;SDS011;7852;52.228;5.990;2023-02-26T04:53:41;1.3;;;0.3;;
15500;SDS011;7852;52.228;5.990;2023-02-26T04:54:41;0.6;;;0.4;;
15500;SDS011;7852;52.228;5.990;2023-02-26T04:55:41;0.5;;;0.4;;
15500;SDS011;7852;52.228;5.990;2023-02-26T04:56:41;1.4;;;0.7;;
15500;SDS011;7852;52.228;5.990;2023-02-26T04:57:41;0.5;;;0.4;;
15500;SDS011;7852;52.228;5.990;2023-02-26T04:58:41;1;;;0.6;;
15500;SDS011;7852;52.228;5.990;2023-02-26T04:59:41;0.3;;;0.3;;
15500;SDS011;7852;52.228;5.990;2023-02-26T05:00:41;0.5;;;0.5;;
15500;SDS011;7852;52.228;5.990;2023-02-26T05:01:41;0.9;;;0.6;;
15500;SDS011;7852;52.228;5.990;2023-02-26T05:02:41;0.4;;;0.4;;
15500;SDS011;7852;52.228;5.990;2023-02-26T05:03:41;1.2;;;0.5;;
15500;SDS011;7852;52.228;5.990;2023-02-26T05:04:41;0.3;;;0.3;;
15500;SDS011;7852;52.228;5.990;2023-02-26T05:05:41;0.9;;;0.4;;
15500;SDS011;7852;52.228;5.990;2023-02-26T05:06:42;1.9;;;0.6;;
15500;SDS011;7852;52.228;5.990;2023-02-26T05:07:41;0.5;;;0.4;;
15500;SDS011;7852;52.228;5.990;2023-02-26T05:08:41;0.4;;;0.4;;
15500;SDS011;7852;52.228;5.990;2023-02-26T05:09:41;1.2;;;0.7;;
15500;SDS011;7852;52.228;5.990;2023-02-26T05:10:41;1.5;;;0.5;;
15500;SDS011;7852;52.228;5.990;2023-02-26T05:11:41;3.7;;;0.4;;
15500;SDS011;7852;52.228;5.990;2023-02-26T05:12:41;1.3;;;0.5;;
15500;SDS011;7852;52.228;5.990;2023-02-26T05:13:41;0.8;;;0.5;;
15500;SDS011;7852;52.228;5.990;2023-02-26T05:14:41;0.9;;;0.6;;
15500;SDS011;7852;52.228;5.990;2023-02-26T05:15:41;1.1;;;0.5;;
15500;SDS011;7852;52.228;5.990;2023-02-26T05:16:41;0.6;;;0.4;;
15500;SDS011;7852;52.228;5.990;2023-02-26T05:17:41;2.7;;;0.4;;
15500;SDS011;7852;52.228;5.990;2023-02-26T05:18:41;0.7;;;0.3;;
15500;SDS011;7852;52.228;5.990;2023-02-26T05:19:41;2.8;;;0.4;;
15500;SDS011;7852;52.228;5.990;2023-02-26T05:20:41;0.5;;;0.5;;
15500;SDS011;7852;52.228;5.990;2023-02-26T05:21:41;0.7;;;0.5;;
15500;SDS011;7852;52.228;5.990;2023-02-26T05:22:41;0.5;;;0.4;;
15500;SDS011;7852;52.228;5.990;2023-02-26T05:23:41;0.2;;;0.2;;
15500;SDS011;7852;52.228;5.990;2023-02-26T05:24:42;1.1;;;0.4;;
15500;SDS011;7852;52.228;5.990;2023-02-26T05:25:42;0.6;;;0.5;;
15500;SDS011;7852;52.228;5.990;2023-02-26T05:26:42;0.6;;;0.4;;
15500;SDS011;7852;52.228;5.990;2023-02-26T05:27:42;0.5;;;0.5;;
15500;SDS011;7852;52.228;5.990;2023-02-26T05:28:42;2.6;;;0.6;;
15500;SDS011;7852;52.228;5.990;2023-02-26T05:29:42;3.2;;;0.8;;
15500;SDS011;7852;52.228;5.990;2023-02-26T05:30:42;0.5;;;0.5;;
15500;SDS011;7852;52.228;5.990;2023-02-26T05:31:42;1.7;;;0.4;;
15500;SDS011;7852;52.228;5.990;2023-02-26T05:32:42;2.7;;;0.6;;
15500;SDS011;7852;52.228;5.990;2023-02-26T05:33:42;0.3;;;0.3;;
15500;SDS011;7852;52.228;5.990;2023-02-26T05:34:42;2.9;;;0.6;;
15500;SDS011;7852;52.228;5.990;2023-02-26T05:35:42;0.4;;;0.4;;
15500;SDS011;7852;52.228;5.990;2023-02-26T05:36:42;1.9;;;0.6;;
15500;SDS011;7852;52.228;5.990;2023-02-26T05:37:42;1.6;;;0.6;;
15500;SDS011;7852;52.228;5.990;2023-02-26T05:38:42;1.8;;;0.3;;
15500;SDS011;7852;52.228;5.990;2023-02-26T05:39:42;0.4;;;0.4;;
15500;SDS011;7852;52.228;5.990;2023-02-26T05:40:42;5.2;;;0.9;;
15500;SDS011;7852;52.228;5.990;2023-02-26T05:41:42;0.2;;;0.2;;
15500;SDS011;7852;52.228;5.990;2023-02-26T05:42:42;0.3;;;0.3;;
15500;SDS011;7852;52.228;5.990;2023-02-26T05:43:42;2.4;;;0.6;;
15500;SDS011;7852;52.228;5.990;2023-02-26T05:44:42;1.7;;;0.6;;
15500;SDS011;7852;52.228;5.990;2023-02-26T05:45:42;1.8;;;0.6;;
15500;SDS011;7852;52.228;5.990;2023-02-26T05:46:42;0.8;;;0.4;;
15500;SDS011;7852;52.228;5.990;2023-02-26T05:47:42;0.8;;;0.6;;
15500;SDS011;7852;52.228;5.990;2023-02-26T05:48:42;0.4;;;0.4;;
15500;SDS011;7852;52.228;5.990;2023-02-26T05:49:42;0.3;;;0.3;;
15500;SDS011;7852;52.228;5.990;2023-02-26T05:50:42;0.7;;;0.5;;
15500;SDS011;7852;52.228;5.990;2023-02-26T05:51:42;0.6;;;0.6;;
15500;SDS011;7852;52.228;5.990;2023-02-26T05:52:42;0.5;;;0.5;;
15500;SDS011;7852;52.228;5.990;2023-02-26T05:53:42;3;;;0.5;;
15500;SDS011;7852;52.228;5.990;2023-02-26T05:54:42;3.6;;;0.4;;
15500;SDS011;7852;52.228;5.990;2023-02-26T05:55:42;3.7;;;0.7;;
15500;SDS011;7852;52.228;5.990;2023-02-26T05:56:42;1.1;;;0.6;;
15500;SDS011;7852;52.228;5.990;2023-02-26T05:57:42;3.6;;;0.7;;
15500;SDS011;7852;52.228;5.990;2023-02-26T05:58:42;0.7;;;0.5;;
15500;SDS011;7852;52.228;5.990;2023-02-26T06:02:10;1.3;;;0.6;;
15500;SDS011;7852;52.228;5.990;2023-02-26T06:03:10;0.5;;;0.5;;
15500;SDS011;7852;52.228;5.990;2023-02-26T06:04:10;0.4;;;0.4;;
15500;SDS011;7852;52.228;5.990;2023-02-26T06:05:10;0.3;;;0.3;;
15500;SDS011;7852;52.228;5.990;2023-02-26T06:06:10;0.3;;;0.3;;
15500;SDS011;7852;52.228;5.990;2023-02-26T06:07:10;0.5;;;0.5;;
15500;SDS011;7852;52.228;5.990;2023-02-26T06:08:10;0.5;;;0.5;;
15500;SDS011;7852;52.228;5.990;2023-02-26T06:09:10;1.4;;;1.1;;
15500;SDS011;7852;52.228;5.990;2023-02-26T06:10:11;0.4;;;0.4;;
15500;SDS011;7852;52.228;5.990;2023-02-26T06:11:10;1.1;;;0.7;;
15500;SDS011;7852;52.228;5.990;2023-02-26T06:12:10;1.4;;;0.5;;
15500;SDS011;7852;52.228;5.990;2023-02-26T06:13:10;3.3;;;1.4;;
15500;SDS011;7852;52.228;5.990;2023-02-26T06:14:10;1.6;;;0.6;;
15500;SDS011;7852;52.228;5.990;2023-02-26T06:15:10;1.8;;;0.6;;
15500;SDS011;7852;52.228;5.990;2023-02-26T06:16:10;0.7;;;0.6;;
15500;SDS011;7852;52.228;5.990;2023-02-26T06:17:10;0.6;;;0.4;;
15500;SDS011;7852;52.228;5.990;2023-02-26T06:18:10;3.3;;;1;;
15500;SDS011;7852;52.228;5.990;2023-02-26T06:19:10;1.7;;;0.7;;
15500;SDS011;7852;52.228;5.990;2023-02-26T06:20:10;0.4;;;0.4;;
15500;SDS011;7852;52.228;5.990;2023-02-26T06:21:10;0.6;;;0.4;;
15500;SDS011;7852;52.228;5.990;2023-02-26T06:22:10;0.7;;;0.6;;
15500;SDS011;7852;52.228;5.990;2023-02-26T06:23:10;0.6;;;0.5;;
15500;SDS011;7852;52.228;5.990;2023-02-26T06:24:10;1.4;;;0.8;;
15500;SDS011;7852;52.228;5.990;2023-02-26T06:25:10;0.2;;;0.2;;